createdAt,value
2022-12-13T00:04:30.469Z,11.17
2022-12-13T00:09:34.068Z,11.47
2022-12-13T00:14:37.427Z,12.97
2022-12-13T00:19:40.490Z,12.50
2022-12-13T00:24:46.171Z,11.60
2022-12-13T00:29:49.362Z,17.03
2022-12-13T00:34:52.323Z,13.17
2022-12-13T00:39:55.334Z,14.77
2022-12-13T00:44:58.379Z,16.00
2022-12-13T00:50:02.401Z,16.53
2022-12-13T00:55:06.137Z,18.57
2022-12-13T01:00:09.781Z,19.10
2022-12-13T01:05:13.757Z,19.17
2022-12-13T01:10:16.974Z,20.57
2022-12-13T01:15:20.041Z,19.53
2022-12-13T01:20:23.018Z,25.67
2022-12-13T01:25:26.063Z,23.63
2022-12-13T01:30:29.440Z,22.17
2022-12-13T01:35:35.922Z,26.23
2022-12-13T01:40:48.422Z,28.07
2022-12-13T01:45:51.445Z,22.40
2022-12-13T01:51:01.157Z,24.43
2022-12-13T01:56:16.439Z,23.27
2022-12-13T02:01:19.854Z,20.90
2022-12-13T02:06:44.450Z,24.03
2022-12-13T02:11:48.301Z,25.60
2022-12-13T02:17:09.746Z,24.83
2022-12-13T02:22:18.516Z,23.50
2022-12-13T02:27:50.780Z,23.80
2022-12-13T02:33:34.692Z,21.23
2022-12-13T02:38:48.655Z,23.17
2022-12-13T02:44:04.367Z,27.73
2022-12-13T02:49:29.026Z,23.37
2022-12-13T02:54:32.316Z,27.10
2022-12-13T02:59:39.720Z,24.73
2022-12-13T03:05:21.440Z,22.03
2022-12-13T03:10:33.411Z,25.00
2022-12-13T03:15:40.677Z,24.93
2022-12-13T03:21:09.276Z,22.33
2022-12-13T03:26:17.375Z,27.77
2022-12-13T03:31:20.673Z,24.07
2022-12-13T03:36:23.815Z,23.23
2022-12-13T03:41:32.480Z,21.30
2022-12-13T03:46:35.699Z,21.63
2022-12-13T03:51:38.734Z,24.27
2022-12-13T03:56:41.639Z,22.97
2022-12-13T04:01:44.678Z,22.47
2022-12-13T04:06:47.772Z,22.77
2022-12-13T04:12:09.071Z,22.57
2022-12-13T04:17:12.141Z,17.10
2022-12-13T04:22:19.017Z,14.60
2022-12-13T04:27:24.736Z,20.30
2022-12-13T04:32:27.742Z,22.03
2022-12-13T04:37:31.304Z,21.40
2022-12-13T04:42:34.332Z,18.47
2022-12-13T04:47:37.340Z,20.40
2022-12-13T04:52:40.257Z,19.27
2022-12-13T04:57:43.202Z,16.10
2022-12-13T05:02:46.227Z,20.27
2022-12-13T05:07:49.738Z,21.63
2022-12-13T05:12:52.785Z,14.17
2022-12-13T05:17:56.363Z,17.93
2022-12-13T05:22:59.560Z,19.20
2022-12-13T05:28:26.965Z,16.07
2022-12-13T05:33:26.109Z,19.33
2022-12-13T05:38:30.235Z,17.40
2022-12-13T05:43:43.041Z,16.03
2022-12-13T05:48:46.648Z,19.70
2022-12-13T05:53:53.260Z,17.30
2022-12-13T05:58:56.833Z,16.10
2022-12-13T06:03:59.801Z,18.73
2022-12-13T06:09:04.015Z,15.10
2022-12-13T06:14:07.059Z,15.53
2022-12-13T06:19:26.164Z,15.43
2022-12-13T06:24:29.158Z,15.57
2022-12-13T06:29:32.516Z,16.20
2022-12-13T06:34:36.463Z,17.23
2022-12-13T06:39:40.053Z,18.77
2022-12-13T06:44:43.678Z,19.63
2022-12-13T06:49:46.952Z,17.87
2022-12-13T06:54:50.526Z,17.23
2022-12-13T06:59:55.481Z,17.50
2022-12-13T07:04:58.481Z,18.40
2022-12-13T07:10:01.434Z,16.77
2022-12-13T07:15:04.809Z,14.70
2022-12-13T07:20:09.373Z,16.73
2022-12-13T07:25:26.675Z,12.80
2022-12-13T07:30:33.756Z,19.73
2022-12-13T07:35:37.135Z,20.30
2022-12-13T07:40:44.595Z,22.57
2022-12-13T07:45:47.647Z,17.20
2022-12-13T07:50:54.464Z,20.00
2022-12-13T07:55:58.174Z,18.53
2022-12-13T08:01:04.581Z,23.37
2022-12-13T08:06:10.234Z,19.00
2022-12-13T08:11:17.985Z,18.30
2022-12-13T08:16:27.207Z,18.53
2022-12-13T08:27:01.703Z,20.67
2022-12-13T08:32:08.031Z,19.40
2022-12-13T08:37:11.505Z,14.47
2022-12-13T08:42:19.358Z,18.23
2022-12-13T08:47:26.347Z,21.93
2022-12-13T08:52:29.808Z,15.93
2022-12-13T08:57:35.526Z,16.90
2022-12-13T09:02:39.219Z,17.63
2022-12-13T09:07:44.124Z,16.80
2022-12-13T09:12:47.139Z,20.30
2022-12-13T09:17:52.005Z,18.73
2022-12-13T09:23:01.848Z,17.47
2022-12-13T09:28:09.862Z,20.30
2022-12-13T09:33:28.855Z,18.60
2022-12-13T09:38:35.759Z,20.03
2022-12-13T09:43:42.645Z,18.80
2022-12-13T09:48:48.536Z,14.83
2022-12-13T09:53:53.815Z,19.97
2022-12-13T09:58:57.960Z,18.10
2022-12-13T10:04:01.573Z,16.93
2022-12-13T10:09:11.512Z,20.00
2022-12-13T10:14:25.165Z,26.47
2022-12-13T10:19:39.477Z,18.33
2022-12-13T10:24:57.480Z,17.47
2022-12-13T10:30:28.783Z,19.37
2022-12-13T10:35:41.133Z,19.07
2022-12-13T10:40:49.340Z,23.77
2022-12-13T10:45:58.508Z,19.47
2022-12-13T10:51:13.685Z,14.97
2022-12-13T10:56:23.806Z,17.70
2022-12-13T11:01:30.543Z,14.20
2022-12-13T11:06:45.796Z,14.00
2022-12-13T11:11:58.271Z,15.50
2022-12-13T11:17:14.636Z,14.67
2022-12-13T11:22:44.162Z,14.67
2022-12-13T11:28:25.863Z,16.90
2022-12-13T11:33:33.261Z,15.67
2022-12-13T11:38:57.810Z,15.03
2022-12-13T11:44:30.005Z,15.23
2022-12-13T11:49:45.863Z,13.50
2022-12-13T11:55:05.399Z,17.53
2022-12-13T12:00:33.954Z,14.00
2022-12-13T12:06:00.031Z,12.83
2022-12-13T12:11:12.294Z,15.90
2022-12-13T12:16:48.958Z,14.00
2022-12-13T12:22:14.919Z,14.60
2022-12-13T12:27:30.430Z,17.57
2022-12-13T12:32:42.289Z,19.07
2022-12-13T12:38:15.051Z,16.80
2022-12-13T12:43:24.131Z,19.03
2022-12-13T12:49:01.186Z,17.37
2022-12-13T12:54:18.555Z,17.83
2022-12-13T12:59:58.139Z,20.17
2022-12-13T13:05:18.596Z,17.40
2022-12-13T13:10:26.314Z,22.23
2022-12-13T13:15:33.267Z,15.47
2022-12-13T13:20:36.588Z,19.13
2022-12-13T13:26:00.215Z,19.27
2022-12-13T13:31:11.117Z,17.47
2022-12-13T13:36:39.055Z,19.73
2022-12-13T13:41:55.302Z,25.23
2022-12-13T13:47:14.816Z,25.60
2022-12-13T13:52:25.947Z,28.03
2022-12-13T13:58:09.637Z,22.77
2022-12-13T14:03:34.675Z,25.70
2022-12-13T14:09:00.224Z,23.13
2022-12-13T14:14:24.745Z,23.13
2022-12-13T14:19:42.668Z,22.10
2022-12-13T14:24:55.596Z,42.93
2022-12-13T14:30:09.568Z,48.20
2022-12-13T14:35:32.745Z,33.97
2022-12-13T14:40:47.435Z,37.70
2022-12-13T14:45:57.821Z,32.23
2022-12-13T14:51:01.428Z,38.67
2022-12-13T14:56:10.052Z,35.93
2022-12-13T15:01:34.559Z,41.13
2022-12-13T15:06:37.653Z,35.60
2022-12-13T15:11:44.717Z,39.37
2022-12-13T15:16:55.439Z,30.37
2022-12-13T15:22:16.141Z,32.17
2022-12-13T15:27:24.614Z,27.40
2022-12-13T15:32:27.671Z,25.37
2022-12-13T15:37:33.462Z,29.47
2022-12-13T15:42:43.650Z,44.57
2022-12-13T15:47:47.685Z,36.10
2022-12-13T15:53:02.212Z,37.23
2022-12-13T15:58:31.767Z,40.23
2022-12-13T16:03:42.704Z,43.10
2022-12-13T16:08:50.270Z,32.97
2022-12-13T16:13:58.247Z,32.93
2022-12-13T16:19:02.146Z,27.80
2022-12-13T16:24:05.388Z,31.90
2022-12-13T16:29:16.663Z,38.77
2022-12-13T16:34:19.951Z,30.53
2022-12-13T16:39:29.293Z,28.60
2022-12-13T16:44:37.718Z,25.53
2022-12-13T16:49:40.854Z,28.27
2022-12-13T16:54:43.918Z,29.00
2022-12-13T16:59:46.979Z,36.97
2022-12-13T17:04:50.030Z,24.77
2022-12-13T17:09:53.151Z,30.20
2022-12-13T17:14:56.224Z,27.73
2022-12-13T17:19:59.435Z,27.23
2022-12-13T17:25:02.925Z,25.80
2022-12-13T17:30:08.648Z,25.70
2022-12-13T17:35:17.850Z,29.70
2022-12-13T17:40:21.566Z,37.73
2022-12-13T17:45:24.606Z,40.80
2022-12-13T17:50:30.847Z,28.57
2022-12-13T17:55:33.972Z,37.60
2022-12-13T18:00:38.217Z,37.30
2022-12-13T18:05:41.256Z,29.40
2022-12-13T18:11:08.611Z,30.10
2022-12-13T18:16:16.872Z,37.77
2022-12-13T18:21:20.346Z,34.87
2022-12-13T18:26:24.359Z,45.23
2022-12-13T18:31:28.340Z,43.53
2022-12-13T18:36:32.496Z,48.03
2022-12-13T18:41:35.538Z,44.87
2022-12-13T18:46:43.339Z,48.03
2022-12-13T18:51:48.879Z,41.67
2022-12-13T18:56:51.922Z,40.00
2022-12-13T19:01:55.466Z,45.07
2022-12-13T19:06:58.689Z,46.13
2022-12-13T19:12:02.313Z,44.50
2022-12-13T19:17:05.389Z,37.17
2022-12-13T19:22:09.099Z,44.33
2022-12-13T19:27:13.267Z,46.30
2022-12-13T19:32:16.334Z,40.40
2022-12-13T19:37:21.613Z,46.80
2022-12-13T19:42:24.600Z,32.77
2022-12-13T19:47:27.627Z,35.57
2022-12-13T19:52:30.690Z,30.50
2022-12-13T19:57:34.304Z,26.57
2022-12-13T20:02:37.464Z,33.70
2022-12-13T20:07:41.107Z,34.90
2022-12-13T20:12:44.132Z,25.17
2022-12-13T20:17:47.195Z,16.13
2022-12-13T20:22:50.269Z,19.93
2022-12-13T20:27:53.338Z,25.50
2022-12-13T20:32:56.403Z,25.43
2022-12-13T20:37:59.536Z,19.50
2022-12-13T20:43:02.583Z,18.20
2022-12-13T20:48:05.874Z,26.23
2022-12-13T20:53:08.963Z,16.47
2022-12-13T20:58:11.959Z,22.13
2022-12-13T21:03:14.997Z,24.00
2022-12-13T21:08:37.488Z,20.70
2022-12-13T21:13:40.622Z,21.27
2022-12-13T21:18:43.797Z,24.73
2022-12-13T21:23:47.037Z,17.40
2022-12-13T21:28:54.570Z,26.70
2022-12-13T21:34:00.514Z,21.43
2022-12-13T21:39:12.713Z,23.47
2022-12-13T21:44:17.710Z,22.53
2022-12-13T21:49:24.180Z,20.27
2022-12-13T21:54:27.207Z,22.70
2022-12-13T21:59:31.120Z,21.93
2022-12-13T22:04:35.563Z,25.53
2022-12-13T22:09:38.657Z,21.50
2022-12-13T22:14:41.678Z,24.40
2022-12-13T22:19:48.389Z,20.13
2022-12-13T22:24:53.695Z,17.93
2022-12-13T22:29:58.499Z,22.43
2022-12-13T22:35:02.440Z,17.93
2022-12-13T22:40:06.594Z,22.70
2022-12-13T22:45:10.109Z,23.77
2022-12-13T22:50:13.163Z,21.60
2022-12-13T22:55:16.836Z,21.77
2022-12-13T23:00:20.151Z,24.80
2022-12-13T23:05:26.005Z,26.10
2022-12-13T23:10:47.395Z,15.70
2022-12-13T23:15:50.467Z,16.07
2022-12-13T23:20:53.527Z,26.00
2022-12-13T23:25:56.510Z,19.93
2022-12-13T23:31:02.436Z,21.80
2022-12-13T23:36:09.893Z,14.53
2022-12-13T23:41:14.351Z,18.63
2022-12-13T23:46:19.922Z,20.33
2022-12-13T23:51:23.125Z,15.77
2022-12-13T23:56:26.208Z,18.40
